Time;durP1;ratioP1;P1;durP2;ratioP2;P2;SDS_P1;SDS_P2;PMS_P1;PMS_P2;Temp;Humidity;BMP_temperature;BMP_pressure;BME280_temperature;BME280_humidity;BME280_pressure;Samples;Min_cycle;Max_cycle;Signal;HPM_P1;HPM_P2
2021/12/13 00:01:02;;;;;;;7.97;3.33;;;;;;;11.39;100.00;102005.66;4984641;28;20523;-89
2021/12/13 00:03:50;;;;;;;6.53;3.27;;;;;;;11.45;100.00;101996.78;5000121;28;20526;-90
2021/12/13 00:06:31;;;;;;;7.10;2.80;;;;;;;11.56;100.00;101996.44;4996162;28;20492;-88
2021/12/13 00:09:00;;;;;;;5.20;2.73;;;;;;;11.65;100.00;101995.44;5016488;28;20862;-89
2021/12/13 00:11:33;;;;;;;6.73;3.07;;;;;;;11.76;100.00;101997.88;5016843;28;20542;-89
2021/12/13 00:14:20;;;;;;;6.47;3.10;;;;;;;11.82;100.00;101998.22;4938831;29;20902;-89
2021/12/13 00:16:59;;;;;;;9.20;2.80;;;;;;;11.89;100.00;101993.78;4954807;29;20467;-89
2021/12/13 00:19:35;;;;;;;9.97;3.20;;;;;;;11.94;100.00;101994.94;4954343;29;20478;-89
2021/12/13 00:22:07;;;;;;;7.33;2.50;;;;;;;11.98;100.00;101990.00;4955272;28;20454;-89
2021/12/13 00:24:37;;;;;;;4.50;1.90;;;;;;;12.01;100.00;101985.03;4954385;28;20443;-88
2021/12/13 00:27:10;;;;;;;3.00;1.80;;;;;;;11.98;100.00;101979.03;4954520;28;20896;-88
2021/12/13 00:30:04;;;;;;;11.10;3.10;;;;;;;11.97;100.00;101969.09;4954577;28;20439;-88
2021/12/13 00:33:11;;;;;;;5.70;2.33;;;;;;;11.88;100.00;101979.22;5007073;28;20450;-89
2021/12/13 00:35:53;;;;;;;6.17;3.07;;;;;;;11.77;100.00;101969.44;5074486;28;20445;-89
2021/12/13 00:38:24;;;;;;;6.77;3.20;;;;;;;11.65;100.00;101967.19;5041398;28;20485;-89
2021/12/13 00:40:58;;;;;;;7.23;3.33;;;;;;;11.56;100.00;101958.13;5024174;28;20441;-89
2021/12/13 00:43:28;;;;;;;6.23;3.73;;;;;;;11.52;100.00;101966.88;5024142;28;21001;-88
2021/12/13 00:45:58;;;;;;;5.50;3.53;;;;;;;11.45;100.00;101955.72;5039508;28;20437;-89
2021/12/13 00:48:28;;;;;;;6.23;3.50;;;;;;;11.41;100.00;101946.13;5040314;28;20798;-89
2021/12/13 00:51:04;;;;;;;8.70;2.47;;;;;;;11.38;100.00;101939.13;5039839;28;20936;-89
2021/12/13 00:53:34;;;;;;;4.10;1.90;;;;;;;11.42;100.00;101939.63;5073590;28;20485;-89
2021/12/13 00:56:22;;;;;;;7.30;2.07;;;;;;;11.52;100.00;101942.22;5040029;28;20445;-89
2021/12/13 00:58:50;;;;;;;2.70;1.70;;;;;;;11.60;100.00;101942.22;5058785;28;20501;-88
2021/12/13 01:01:21;;;;;;;4.20;1.67;;;;;;;11.69;100.00;101936.56;5023649;28;20446;-89
2021/12/13 01:03:49;;;;;;;6.53;1.70;;;;;;;11.75;100.00;101924.91;5023753;28;20449;-89
2021/12/13 01:06:54;;;;;;;2.23;1.27;;;;;;;11.92;100.00;101925.81;5019450;28;20471;-89
2021/12/13 01:09:40;;;;;;;1.90;1.33;;;;;;;12.02;100.00;101931.94;5073392;28;20452;-89
2021/12/13 01:12:32;;;;;;;4.73;1.33;;;;;;;12.10;100.00;101928.34;5073187;28;20857;-88
2021/12/13 01:15:15;;;;;;;3.67;1.50;;;;;;;12.17;100.00;101923.84;5002750;28;20841;-88
2021/12/13 01:17:59;;;;;;;8.03;1.80;;;;;;;12.23;100.00;101925.91;4980598;28;20527;-88
2021/12/13 01:21:39;;;;;;;4.07;1.40;;;;;;;12.28;100.00;101914.41;5006707;28;20432;-88
2021/12/13 01:23:47;;;;;;;5.53;1.20;;;;;;;12.34;100.00;101910.94;4995834;28;20483;-88
2021/12/13 01:26:42;;;;;;;4.50;1.17;;;;;;;12.38;100.00;101904.94;4982548;28;20531;-88
2021/12/13 01:29:16;;;;;;;2.87;1.37;;;;;;;12.39;100.00;101898.41;4998744;28;20440;-88
2021/12/13 01:32:07;;;;;;;4.23;1.43;;;;;;;12.42;100.00;101894.47;4980022;28;20448;-88
2021/12/13 01:34:36;;;;;;;7.33;1.70;;;;;;;12.41;100.00;101885.38;4993120;28;20543;-88
2021/12/13 01:37:14;;;;;;;8.20;2.20;;;;;;;12.45;100.00;101892.22;4979354;28;20440;-88
2021/12/13 01:39:51;;;;;;;4.00;1.27;;;;;;;12.43;100.00;101882.47;5000413;28;20477;-88
2021/12/13 01:42:41;;;;;;;7.00;1.40;;;;;;;12.49;100.00;101894.63;5035397;28;20442;-88
2021/12/13 01:45:12;;;;;;;8.20;1.73;;;;;;;12.45;100.00;101889.50;5053201;28;20435;-88
2021/12/13 01:47:45;;;;;;;4.10;1.50;;;;;;;12.46;100.00;101887.59;5036448;28;20509;-89
2021/12/13 01:50:20;;;;;;;5.47;1.47;;;;;;;12.50;100.00;101890.84;5055679;28;20503;-88
2021/12/13 01:52:52;;;;;;;2.63;1.00;;;;;;;12.48;100.00;101879.22;5055443;28;20503;-88
2021/12/13 01:55:37;;;;;;;3.63;1.40;;;;;;;12.49;100.00;101878.16;5055565;28;20974;-88
2021/12/13 01:58:26;;;;;;;3.10;1.60;;;;;;;12.50;100.00;101875.25;5040479;28;20978;-88
2021/12/13 02:01:11;;;;;;;3.97;1.10;;;;;;;12.50;100.00;101875.25;5041024;28;20447;-88
2021/12/13 02:03:41;;;;;;;4.30;1.53;;;;;;;12.53;100.00;101874.00;5042092;28;20441;-88
2021/12/13 02:06:09;;;;;;;3.70;1.10;;;;;;;12.49;100.00;101867.19;5054909;28;20995;-88
2021/12/13 02:08:37;;;;;;;4.33;1.37;;;;;;;12.52;100.00;101866.81;5022768;28;20471;-88
2021/12/13 02:11:05;;;;;;;2.00;1.00;;;;;;;12.52;100.00;101873.16;5038432;28;20957;-87
2021/12/13 02:13:42;;;;;;;2.03;1.20;;;;;;;12.53;100.00;101868.53;5022639;28;20448;-88
2021/12/13 02:18:59;;;;;;;4.03;1.27;;;;;;;12.58;100.00;101880.69;5057972;28;20503;-89
2021/12/13 02:21:32;;;;;;;4.93;1.13;;;;;;;12.55;100.00;101878.28;5038654;28;20438;-88
2021/12/13 02:24:06;;;;;;;5.50;1.43;;;;;;;12.53;100.00;101872.13;5022157;28;20441;-88
2021/12/13 02:26:36;;;;;;;6.57;1.77;;;;;;;12.51;100.00;101863.22;5038715;28;20453;-88
2021/12/13 02:29:42;;;;;;;3.50;1.23;;;;;;;12.55;100.00;101877.44;5038690;28;20454;-88
2021/12/13 02:32:10;;;;;;;5.43;1.50;;;;;;;12.52;100.00;101872.31;5043397;28;20445;-88
2021/12/13 02:34:38;;;;;;;3.07;1.30;;;;;;;12.50;100.00;101868.91;5021950;28;20491;-88
2021/12/13 02:37:06;;;;;;;7.60;1.50;;;;;;;12.50;100.00;101866.19;5038868;28;20855;-88
2021/12/13 02:40:01;;;;;;;2.70;1.27;;;;;;;12.47;100.00;101864.63;5022338;28;20531;-88
2021/12/13 02:42:29;;;;;;;6.77;1.70;;;;;;;12.44;100.00;101860.38;5041394;28;20814;-88
2021/12/13 02:45:11;;;;;;;6.33;1.80;;;;;;;12.45;100.00;101859.34;5038497;28;20896;-87
2021/12/13 02:47:43;;;;;;;16.57;2.00;;;;;;;12.43;100.00;101863.28;5041026;28;20503;-88
2021/12/13 02:50:18;;;;;;;4.73;1.80;;;;;;;12.40;100.00;101864.50;5040406;28;20441;-88
2021/12/13 02:52:46;;;;;;;8.70;1.90;;;;;;;12.37;100.00;101853.88;5058569;28;20531;-87
2021/12/13 02:55:20;;;;;;;6.50;1.23;;;;;;;12.39;100.00;101871.00;5026168;28;20437;-88
2021/12/13 02:57:51;;;;;;;13.93;2.07;;;;;;;12.37;100.00;101864.84;5058343;28;20842;-88
2021/12/13 03:00:58;;;;;;;9.53;1.77;;;;;;;12.35;100.00;101858.69;5041598;28;20445;-88
2021/12/13 03:03:29;;;;;;;4.87;1.27;;;;;;;12.30;100.00;101852.91;5058432;28;20438;-88
2021/12/13 03:05:59;;;;;;;7.50;1.40;;;;;;;12.35;100.00;101866.03;5021930;28;20482;-87
2021/12/13 03:08:32;;;;;;;2.37;1.23;;;;;;;12.36;100.00;101863.13;5022230;28;20450;-88
2021/12/13 03:11:03;;;;;;;3.20;1.50;;;;;;;12.36;100.00;101857.66;5022209;28;20773;-88
2021/12/13 03:13:33;;;;;;;3.17;1.20;;;;;;;12.40;100.00;101859.00;5022442;28;20874;-88
2021/12/13 03:16:07;;;;;;;5.60;1.50;;;;;;;12.38;100.00;101850.09;5022607;28;20438;-89
2021/12/13 03:19:04;;;;;;;6.40;1.37;;;;;;;12.46;100.00;101857.44;5037342;28;20469;-88
2021/12/13 03:21:35;;;;;;;2.17;1.73;;;;;;;12.47;100.00;101852.81;5037073;28;20427;-88
2021/12/13 03:24:40;;;;;;;4.73;1.53;;;;;;;12.45;100.00;101856.59;5033038;28;21966;-89
2021/12/13 03:27:26;;;;;;;6.30;1.50;;;;;;;12.43;100.00;101866.88;5037640;28;20446;-88
2021/12/13 03:29:53;;;;;;;2.40;1.17;;;;;;;12.45;100.00;101870.31;5022258;28;20454;-89
2021/12/13 03:32:21;;;;;;;4.17;1.30;;;;;;;12.38;100.00;101866.56;5033041;28;20439;-88
2021/12/13 03:35:18;;;;;;;5.17;1.13;;;;;;;12.40;100.00;101860.88;5020539;28;20453;-88
2021/12/13 03:37:55;;;;;;;2.17;1.17;;;;;;;12.38;100.00;101858.31;5038846;28;20453;-88
2021/12/13 03:40:23;;;;;;;3.83;1.20;;;;;;;12.37;100.00;101864.84;5038436;28;20434;-88
2021/12/13 03:42:57;;;;;;;4.00;1.03;;;;;;;12.32;100.00;101860.91;5019759;28;20442;-88
2021/12/13 03:45:38;;;;;;;7.13;1.57;;;;;;;12.34;100.00;101867.06;5021538;28;20444;-88
2021/12/13 03:48:08;;;;;;;2.43;0.90;;;;;;;12.31;100.00;101862.84;5036478;28;20446;-87
2021/12/13 03:50:39;;;;;;;4.33;1.53;;;;;;;12.29;100.00;101861.28;5021703;28;20442;-88
2021/12/13 03:53:31;;;;;;;5.57;1.30;;;;;;;12.27;100.00;101861.47;5005389;28;20442;-88
2021/12/13 03:56:12;;;;;;;6.20;1.37;;;;;;;12.20;100.00;101862.34;5037704;28;20441;-88
2021/12/13 03:58:46;;;;;;;1.90;1.10;;;;;;;12.16;100.00;101861.84;5037082;28;20478;-87
2021/12/13 04:01:29;;;;;;;7.50;1.60;;;;;;;12.12;100.00;101871.47;5005436;28;20529;-87
2021/12/13 04:03:58;;;;;;;3.50;1.43;;;;;;;12.07;100.00;101862.91;5022047;28;20500;-88
2021/12/13 04:06:26;;;;;;;4.33;1.30;;;;;;;12.03;100.00;101856.06;5021136;28;20473;-88
2021/12/13 04:08:57;;;;;;;3.43;1.37;;;;;;;12.01;100.00;101856.25;5020037;28;20449;-88
2021/12/13 04:11:27;;;;;;;3.60;1.20;;;;;;;11.99;100.00;101854.72;5037040;28;20973;-88
2021/12/13 04:14:05;;;;;;;4.47;1.30;;;;;;;11.96;100.00;101844.09;5004778;28;20442;-88
2021/12/13 04:16:49;;;;;;;6.27;1.33;;;;;;;12.00;100.00;101839.97;5022919;28;20443;-88
2021/12/13 04:19:20;;;;;;;3.40;1.20;;;;;;;12.00;100.00;101840.84;5021554;28;20474;-87
2021/12/13 04:21:57;;;;;;;2.50;1.27;;;;;;;12.06;100.00;101837.41;5020809;28;20796;-87
2021/12/13 04:24:48;;;;;;;9.50;1.60;;;;;;;12.03;100.00;101828.66;5037093;28;20877;-88
2021/12/13 04:27:25;;;;;;;3.37;1.20;;;;;;;12.11;100.00;101831.41;5022418;28;20474;-88
2021/12/13 04:29:56;;;;;;;3.03;1.00;;;;;;;12.15;100.00;101832.72;5019940;28;20500;-87
2021/12/13 04:32:34;;;;;;;3.33;1.50;;;;;;;12.19;100.00;101834.09;5021360;28;20442;-87
2021/12/13 04:35:04;;;;;;;4.50;1.60;;;;;;;12.17;100.00;101821.59;4984759;28;20977;-87
2021/12/13 04:37:37;;;;;;;2.37;1.10;;;;;;;12.25;100.00;101838.88;5019630;28;20996;-87
2021/12/13 04:40:09;;;;;;;6.07;1.20;;;;;;;12.23;100.00;101827.22;5020677;28;20834;-87
2021/12/13 04:42:39;;;;;;;6.90;1.30;;;;;;;12.21;100.00;101821.06;5020512;28;20443;-88
2021/12/13 04:45:13;;;;;;;4.23;1.30;;;;;;;12.30;100.00;101827.38;5020294;28;20438;-88
2021/12/13 04:47:57;;;;;;;3.70;1.37;;;;;;;12.30;100.00;101833.72;5000599;28;20808;-88
2021/12/13 04:50:29;;;;;;;4.40;1.63;;;;;;;12.31;100.00;101831.81;5032238;28;20453;-88
2021/12/13 04:52:57;;;;;;;8.70;0.90;;;;;;;12.29;100.00;101822.91;5020319;28;20471;-88
2021/12/13 04:55:42;;;;;;;5.47;1.27;;;;;;;12.33;100.00;101830.59;5002087;28;20450;-88
2021/12/13 04:58:11;;;;;;;3.63;1.70;;;;;;;12.34;100.00;101837.78;5051842;28;20980;-88
2021/12/13 05:00:42;;;;;;;2.00;0.80;;;;;;;12.32;100.00;101837.09;5036274;28;20470;-89
2021/12/13 05:03:12;;;;;;;7.27;1.20;;;;;;;12.33;100.00;101829.72;4999919;28;20435;-88
2021/12/13 05:05:40;;;;;;;7.63;1.50;;;;;;;12.34;100.00;101832.28;5016894;28;21061;-89
2021/12/13 05:08:15;;;;;;;3.30;1.07;;;;;;;12.36;100.00;101837.59;5050139;28;20449;-89
2021/12/13 05:10:46;;;;;;;5.73;1.37;;;;;;;12.35;100.00;101839.50;5056785;28;20531;-89
2021/12/13 05:13:18;;;;;;;5.50;1.40;;;;;;;12.34;100.00;101826.81;5039409;28;20533;-90
2021/12/13 05:16:01;;;;;;;5.43;1.00;;;;;;;12.36;100.00;101830.22;5040245;28;20441;-89
2021/12/13 05:18:32;;;;;;;4.80;1.50;;;;;;;12.37;100.00;101837.41;5018361;28;20470;-89
2021/12/13 05:21:04;;;;;;;5.57;1.67;;;;;;;12.40;100.00;101836.22;5045998;28;20522;-89
2021/12/13 05:23:33;;;;;;;3.57;1.10;;;;;;;12.37;100.00;101825.59;5012784;28;20433;-89
2021/12/13 05:26:06;;;;;;;2.60;0.90;;;;;;;12.37;100.00;101820.13;5038135;28;21034;-89
2021/12/13 05:28:45;;;;;;;4.57;1.40;;;;;;;12.38;100.00;101833.66;5023062;28;20442;-89
2021/12/13 05:31:19;;;;;;;4.50;1.40;;;;;;;12.38;100.00;101836.38;5073225;28;20506;-89
2021/12/13 05:33:54;;;;;;;3.90;1.50;;;;;;;12.34;100.00;101832.28;5038989;28;20446;-89
2021/12/13 05:36:25;;;;;;;6.63;1.70;;;;;;;12.37;100.00;101831.94;5055541;28;20469;-89
2021/12/13 05:39:20;;;;;;;2.60;1.40;;;;;;;12.34;100.00;101832.28;5038900;28;21001;-89
2021/12/13 05:42:03;;;;;;;8.80;1.60;;;;;;;12.26;100.00;101823.28;5037986;28;20532;-88
2021/12/13 05:44:35;;;;;;;5.63;1.70;;;;;;;12.34;100.00;101836.91;5023566;28;20536;-88
2021/12/13 05:47:06;;;;;;;4.10;1.43;;;;;;;12.34;100.00;101837.78;5045433;28;20438;-89
2021/12/13 05:49:36;;;;;;;4.27;1.33;;;;;;;12.32;100.00;101828.88;5039053;28;20495;-89
2021/12/13 05:52:47;;;;;;;2.27;1.10;;;;;;;12.33;100.00;101832.47;5039531;28;20441;-88
2021/12/13 05:55:15;;;;;;;1.50;0.87;;;;;;;12.27;100.00;101823.09;5040037;28;20933;-88
2021/12/13 05:57:49;;;;;;;5.40;1.40;;;;;;;12.31;100.00;101829.09;5019937;28;20929;-88
2021/12/13 06:00:29;;;;;;;3.87;1.23;;;;;;;12.28;100.00;101833.03;5039496;28;20496;-87
2021/12/13 06:03:01;;;;;;;7.10;1.33;;;;;;;12.30;100.00;101844.69;5023683;28;20483;-88
2021/12/13 06:05:35;;;;;;;3.03;1.10;;;;;;;12.27;100.00;101853.25;5039157;28;20800;-87
2021/12/13 06:08:11;;;;;;;3.23;2.00;;;;;;;12.27;100.00;101847.78;5038906;28;20806;-88
2021/12/13 06:11:07;;;;;;;3.90;1.23;;;;;;;12.23;100.00;101845.56;5072999;28;20441;-89
2021/12/13 06:13:48;;;;;;;4.93;1.20;;;;;;;12.25;100.00;101852.56;5039051;28;20473;-88
2021/12/13 06:16:24;;;;;;;2.73;1.10;;;;;;;12.24;100.00;101850.00;5055095;28;20986;-88
2021/12/13 06:18:58;;;;;;;4.60;1.73;;;;;;;12.24;100.00;101848.13;5072339;28;20477;-88
2021/12/13 06:21:58;;;;;;;2.50;1.07;;;;;;;12.24;100.00;101859.06;5055293;28;20432;-88
2021/12/13 06:24:54;;;;;;;3.10;1.13;;;;;;;12.19;100.00;101855.16;5052828;28;20830;-88
2021/12/13 06:27:24;;;;;;;4.40;1.03;;;;;;;12.16;100.00;101861.84;5032688;28;20434;-88
2021/12/13 06:29:59;;;;;;;2.67;1.30;;;;;;;12.21;100.00;101867.66;5024511;28;20496;-89
2021/12/13 06:32:40;;;;;;;3.90;1.13;;;;;;;12.17;100.00;101857.22;5042904;28;20860;-88
2021/12/13 06:35:46;;;;;;;8.77;1.23;;;;;;;12.16;100.00;101867.31;5042405;28;20467;-88
2021/12/13 06:38:57;;;;;;;7.17;1.53;;;;;;;12.14;100.00;101874.84;5035369;28;20499;-88
2021/12/13 06:41:28;;;;;;;7.53;1.83;;;;;;;12.13;100.00;101875.88;5059105;28;20931;-89
2021/12/13 06:44:10;;;;;;;4.03;1.50;;;;;;;12.11;100.00;101869.75;5058386;28;20434;-88
2021/12/13 06:47:11;;;;;;;5.47;2.17;;;;;;;12.11;100.00;101875.25;5027130;28;20935;-88
2021/12/13 06:49:41;;;;;;;5.23;1.50;;;;;;;12.09;100.00;101877.28;5056447;28;20862;-88
2021/12/13 06:52:21;;;;;;;3.33;1.40;;;;;;;12.09;100.00;101871.81;5042755;28;20445;-88
2021/12/13 06:54:57;;;;;;;4.07;1.60;;;;;;;12.10;100.00;101876.28;5042372;28;20452;-89
2021/12/13 06:57:31;;;;;;;6.30;2.10;;;;;;;12.11;100.00;101872.50;5058550;28;20448;-88
2021/12/13 07:00:22;;;;;;;9.80;2.60;;;;;;;12.10;100.00;101865.31;5057974;28;20473;-88
2021/12/13 07:02:52;;;;;;;5.27;2.50;;;;;;;12.12;100.00;101868.72;5058377;28;20441;-89
2021/12/13 07:05:42;;;;;;;5.33;1.77;;;;;;;12.13;100.00;101869.56;5025908;28;20445;-88
2021/12/13 07:08:17;;;;;;;3.90;1.53;;;;;;;12.14;100.00;101866.63;5052284;28;20970;-89
2021/12/13 07:11:06;;;;;;;5.90;1.70;;;;;;;12.16;100.00;101867.31;5055418;28;20507;-89
2021/12/13 07:13:37;;;;;;;6.10;1.23;;;;;;;12.06;100.00;101837.41;5041495;28;20449;-89
2021/12/13 07:16:05;;;;;;;2.00;1.60;;;;;;;12.18;100.00;101873.47;5042579;28;20461;-89
2021/12/13 07:19:06;;;;;;;3.70;1.20;;;;;;;12.21;100.00;101878.63;5058152;28;20442;-88
2021/12/13 07:21:44;;;;;;;8.00;1.57;;;;;;;12.20;100.00;101871.44;5075630;28;20442;-89
2021/12/13 07:24:18;;;;;;;3.90;1.43;;;;;;;12.22;100.00;101872.09;5041537;28;20998;-89
2021/12/13 07:26:55;;;;;;;9.23;1.80;;;;;;;12.25;100.00;101881.88;5025973;28;20445;-89
2021/12/13 07:29:29;;;;;;;4.00;1.37;;;;;;;12.20;100.00;101870.56;5042069;28;20935;-89
2021/12/13 07:32:15;;;;;;;10.53;1.50;;;;;;;12.23;100.00;101873.81;5042393;28;20434;-89
2021/12/13 07:35:09;;;;;;;5.00;1.60;;;;;;;12.26;100.00;101878.09;5056555;28;20434;-88
2021/12/13 07:37:51;;;;;;;4.87;1.80;;;;;;;12.30;100.00;101884.94;5045302;28;20442;-89
2021/12/13 07:40:23;;;;;;;4.57;1.80;;;;;;;12.32;100.00;101883.69;5057372;28;20539;-89
2021/12/13 07:43:11;;;;;;;3.37;1.23;;;;;;;12.34;100.00;101884.38;5057597;28;20469;-89
2021/12/13 07:45:54;;;;;;;3.77;1.13;;;;;;;12.39;100.00;101881.13;5059078;28;20512;-89
2021/12/13 07:48:25;;;;;;;2.83;1.10;;;;;;;12.35;100.00;101866.91;5057372;28;20430;-88
2021/12/13 07:51:02;;;;;;;2.73;1.00;;;;;;;12.49;100.00;101883.66;5058219;28;20430;-89
2021/12/13 07:53:38;;;;;;;6.73;1.70;;;;;;;12.51;100.00;101878.84;5040829;28;20947;-89
2021/12/13 07:56:06;;;;;;;5.23;1.67;;;;;;;12.56;100.00;101881.88;5057097;28;20438;-89
2021/12/13 07:59:06;;;;;;;4.30;1.90;;;;;;;12.61;100.00;101882.22;5041195;28;21022;-89
2021/12/13 08:01:50;;;;;;;6.90;2.60;;;;;;;12.65;100.00;101883.56;5061606;28;20517;-89
2021/12/13 08:04:26;;;;;;;5.47;1.90;;;;;;;12.68;100.00;101885.97;5057570;28;20876;-89
2021/12/13 08:07:07;;;;;;;6.60;1.73;;;;;;;12.72;100.00;101884.53;5041147;28;20986;-89
2021/12/13 08:09:39;;;;;;;3.67;1.67;;;;;;;12.74;100.00;101885.22;5054176;28;20430;-90
2021/12/13 08:12:36;;;;;;;4.13;1.83;;;;;;;12.82;100.00;101895.31;5016499;28;20442;-90
2021/12/13 08:15:23;;;;;;;8.00;1.20;;;;;;;12.82;100.00;101895.31;5041279;28;20463;-90
2021/12/13 08:17:54;;;;;;;3.67;1.47;;;;;;;12.89;100.00;101899.91;5040613;28;20449;-89
2021/12/13 08:20:32;;;;;;;6.60;1.53;;;;;;;12.93;100.00;101895.72;5056834;28;20485;-88
2021/12/13 08:23:00;;;;;;;2.33;1.30;;;;;;;12.92;100.00;101883.06;5038465;28;20470;-88
2021/12/13 08:25:35;;;;;;;3.73;1.63;;;;;;;13.02;100.00;101899.28;5041500;28;20430;-92
2021/12/13 08:31:54;;;;;;;4.47;1.50;;;;;;;13.08;100.00;101895.84;5075430;28;20425;-94
2021/12/13 08:35:14;;;;;;;7.07;1.70;;;;;;;13.19;100.00;101908.31;5025100;28;20961;-94
2021/12/13 08:37:56;;;;;;;5.60;1.43;;;;;;;13.24;100.00;101908.63;5057665;28;20679;-94
2021/12/13 08:40:35;;;;;;;7.00;2.10;;;;;;;13.23;100.00;101894.03;5041930;28;21028;-93
2021/12/13 08:43:42;;;;;;;8.27;2.27;;;;;;;13.37;100.00;101906.09;5026133;28;20437;-95
2021/12/13 08:46:47;;;;;;;7.70;2.17;;;;;;;13.46;100.00;101907.75;5058206;28;20445;-93
2021/12/13 08:49:21;;;;;;;7.03;1.70;;;;;;;13.53;100.00;101900.47;5057725;28;20446;-90
2021/12/13 08:52:06;;;;;;;13.27;2.47;;;;;;;13.62;100.00;101915.84;5040981;28;20441;-91
2021/12/13 08:54:55;;;;;;;5.87;1.60;;;;;;;13.69;100.00;101900.31;5024745;28;20437;-91
2021/12/13 08:57:45;;;;;;;7.67;2.50;;;;;;;13.78;100.00;101914.84;5042389;28;20537;-88
2021/12/13 09:00:13;;;;;;;14.30;2.57;;;;;;;13.87;100.00;101907.38;5055835;28;20535;-90
2021/12/13 09:02:48;;;;;;;9.93;2.07;;;;;;;13.97;100.00;101907.97;5056638;28;20452;-91
2021/12/13 09:05:22;;;;;;;7.90;2.43;;;;;;;14.04;100.00;101895.19;5038025;28;20441;-90
2021/12/13 09:08:10;;;;;;;19.23;5.80;;;;;;;14.15;100.00;101897.47;5040777;28;20468;-91
2021/12/13 09:10:42;;;;;;;8.63;2.73;;;;;;;14.24;100.00;101915.56;5040248;28;20468;-90
2021/12/13 09:13:10;;;;;;;8.40;2.20;;;;;;;14.29;100.00;101907.59;5056671;28;20525;-90
2021/12/13 09:15:41;;;;;;;7.73;2.50;;;;;;;14.38;100.00;101897.38;5041077;28;20433;-90
2021/12/13 09:18:09;;;;;;;16.73;3.50;;;;;;;14.49;100.00;101900.50;5028702;28;20452;-90
2021/12/13 09:20:46;;;;;;;16.63;3.20;;;;;;;14.58;100.00;101900.41;5023894;28;20488;-90
2021/12/13 09:23:19;;;;;;;11.67;3.50;;;;;;;14.68;100.00;101903.69;5040955;28;20501;-91
2021/12/13 09:25:55;;;;;;;21.70;3.27;;;;;;;14.75;100.00;101900.00;5021467;28;20447;-91
2021/12/13 09:28:32;;;;;;;14.20;3.57;;;;;;;14.87;100.00;101900.34;5046342;28;20441;-90
2021/12/13 09:31:01;;;;;;;20.20;5.07;;;;;;;14.96;100.00;101903.84;5056901;28;20441;-92
2021/12/13 09:33:39;;;;;;;14.20;5.00;;;;;;;15.00;100.00;101894.16;5039933;28;20438;-92
2021/12/13 09:36:18;;;;;;;23.13;7.43;;;;;;;15.10;100.00;101908.44;5025135;28;20456;-92
2021/12/13 09:39:34;;;;;;;23.53;7.20;;;;;;;15.16;100.00;101904.91;5056385;28;20446;-92
2021/12/13 09:42:07;;;;;;;25.83;6.20;;;;;;;15.24;100.00;101901.16;5046017;28;21008;-90
2021/12/13 09:59:58;;;;;;;33.73;9.30;;;;;;;15.89;100.00;101925.75;4996731;28;20519;-88
2021/12/13 10:02:34;;;;;;;28.67;10.17;;;;;;;15.97;100.00;101924.78;4993438;28;20444;-83
2021/12/13 10:05:07;;;;;;;27.07;7.60;;;;;;;16.04;100.00;101922.91;4978325;28;20448;-84
2021/12/13 10:07:37;;;;;;;30.60;7.87;;;;;;;16.13;100.00;101929.97;4991506;28;20460;-87
2021/12/13 10:10:28;;;;;;;28.90;7.00;;;;;;;16.28;100.00;101922.44;5008176;28;20444;-83
2021/12/13 10:12:58;;;;;;;36.93;7.90;;;;;;;16.31;100.00;101916.53;4994981;28;20464;-83
2021/12/13 10:15:30;;;;;;;31.30;7.27;;;;;;;16.40;100.00;101923.56;5010911;28;20437;-83
2021/12/13 10:18:00;;;;;;;31.13;6.77;;;;;;;16.44;100.00;101916.59;5011030;28;20911;-83
2021/12/13 10:21:03;;;;;;;25.00;5.27;;;;;;;16.58;100.00;101931.31;5010894;28;20483;-83
2021/12/13 10:23:33;;;;;;;30.13;4.60;;;;;;;16.68;100.00;101925.44;5028136;28;20489;-83
2021/12/13 10:26:21;;;;;;;17.10;3.43;;;;;;;16.70;100.00;101926.09;5030558;28;20435;-83
2021/12/13 10:28:56;;;;;;;25.37;4.60;;;;;;;16.73;100.00;101933.97;5014430;28;20439;-83
2021/12/13 10:31:48;;;;;;;24.00;5.20;;;;;;;16.83;100.00;101939.97;5015201;28;20442;-84
2021/12/13 10:34:18;;;;;;;21.07;4.73;;;;;;;16.88;100.00;101948.50;5053108;28;20437;-83
2021/12/13 10:36:50;;;;;;;29.07;5.57;;;;;;;16.91;100.00;101945.31;5055268;28;20882;-83
2021/12/13 10:39:21;;;;;;;18.07;4.80;;;;;;;17.03;100.00;101938.13;5041662;28;20440;-83
2021/12/13 10:42:06;;;;;;;26.33;5.77;;;;;;;17.11;100.00;101940.72;5020125;28;20435;-83
2021/12/13 10:44:38;;;;;;;19.97;4.40;;;;;;;17.15;100.00;101941.13;5030318;28;20441;-84
2021/12/13 10:47:08;;;;;;;16.80;4.13;;;;;;;17.21;100.00;101937.53;5032602;28;20458;-84
2021/12/13 10:49:40;;;;;;;23.43;4.70;;;;;;;17.30;100.00;101932.69;5040990;28;20478;-83
2021/12/13 10:52:13;;;;;;;29.23;5.47;;;;;;;17.38;100.00;101929.72;5023741;28;20454;-84
2021/12/13 10:54:44;;;;;;;17.50;4.43;;;;;;;17.44;100.00;101920.59;5017199;28;20506;-84
2021/12/13 10:57:16;;;;;;;23.10;4.23;;;;;;;17.48;100.00;101921.88;5024227;28;20485;-86
2021/12/13 10:59:48;;;;;;;24.20;5.67;;;;;;;17.54;100.00;101918.25;5031338;28;20482;-86
2021/12/13 11:02:26;;;;;;;31.07;6.70;;;;;;;17.58;100.00;101912.09;5043667;28;20963;-85
2021/12/13 11:05:04;;;;;;;16.53;4.20;;;;;;;17.67;100.00;101915.56;5050327;28;20442;-85
2021/12/13 11:07:32;;;;;;;21.60;4.43;;;;;;;17.67;100.00;101901.72;5055661;28;20989;-85
2021/12/13 11:09:59;;;;;;;16.87;4.63;;;;;;;17.66;100.00;101913.84;5018246;28;20529;-88
2021/12/13 11:12:36;;;;;;;20.90;4.30;;;;;;;17.51;100.00;101883.59;5022350;28;20477;-89
2021/12/13 11:15:08;;;;;;;23.07;5.10;;;;;;;17.64;100.00;101902.16;5021730;28;20505;-84
2021/12/13 11:17:36;;;;;;;25.50;5.30;;;;;;;17.71;100.00;101897.44;5038754;28;20941;-84
2021/12/13 11:20:26;;;;;;;25.20;3.93;;;;;;;17.71;100.00;101897.44;5005312;28;20480;-84
2021/12/13 11:22:54;;;;;;;14.47;4.30;;;;;;;17.69;100.00;101898.75;5005850;28;20449;-85
2021/12/13 11:25:29;;;;;;;34.53;6.77;;;;;;;17.62;100.00;101890.41;5021750;28;20950;-84
2021/12/13 11:27:57;;;;;;;21.43;4.90;;;;;;;17.60;100.00;101884.25;5016574;28;20467;-88
2021/12/13 11:30:28;;;;;;;27.73;4.53;;;;;;;17.61;100.00;101889.56;5023461;28;20458;-85
2021/12/13 11:32:56;;;;;;;23.63;4.50;;;;;;;17.65;100.00;101890.03;5054444;28;20435;-85
2021/12/13 11:35:51;;;;;;;21.30;4.53;;;;;;;17.76;100.00;101894.91;5056461;28;20493;-85
2021/12/13 11:46:07;;;;;;;25.97;5.50;;;;;;;18.45;100.00;101883.31;5056047;28;20514;-84
2021/12/13 11:48:50;;;;;;;23.47;5.90;;;;;;;18.61;100.00;101877.31;5052847;28;20447;-85
2021/12/13 11:51:36;;;;;;;22.77;4.20;;;;;;;18.70;100.00;101896.44;5036863;28;20443;-85
2021/12/13 11:54:32;;;;;;;22.07;4.63;;;;;;;18.83;100.00;101879.78;5056777;28;20956;-86
2021/12/13 11:57:19;;;;;;;25.30;4.57;;;;;;;18.87;100.00;101870.78;5047267;28;20454;-83
2021/12/13 12:00:21;;;;;;;19.53;4.53;;;;;;;18.86;100.00;101871.84;5054657;28;20480;-82
2021/12/13 12:03:26;;;;;;;19.70;3.93;;;;;;;18.85;100.00;101872.09;5046835;28;20505;-82
2021/12/13 12:06:12;;;;;;;26.17;7.83;;;;;;;18.79;100.00;101864.66;5051339;28;20551;-83
2021/12/13 12:09:13;;;;;;;28.70;5.60;;;;;;;18.77;100.00;101858.47;5054935;28;20784;-82
2021/12/13 12:12:09;;;;;;;16.10;4.43;;;;;;;18.74;100.00;101858.91;5070371;28;20451;-84
2021/12/13 12:14:37;;;;;;;18.90;4.80;;;;;;;18.72;100.00;101855.50;5085616;28;20438;-84
2021/12/13 12:17:07;;;;;;;26.27;5.17;;;;;;;18.73;100.00;101854.44;5069976;28;20782;-84
2021/12/13 12:19:37;;;;;;;29.73;4.60;;;;;;;18.65;100.00;101849.19;5053570;28;20485;-84
2021/12/13 12:22:06;;;;;;;39.90;6.23;;;;;;;18.60;100.00;101842.38;5052903;28;20500;-85
2021/12/13 12:24:37;;;;;;;34.83;5.60;;;;;;;18.63;100.00;101841.94;5053472;28;20812;-84
2021/12/13 12:27:19;;;;;;;22.70;5.60;;;;;;;18.69;100.00;101837.41;5073258;28;20491;-85
2021/12/13 12:29:59;;;;;;;26.57;6.97;;;;;;;18.77;100.00;101841.88;5073039;28;20985;-85
2021/12/13 12:32:50;;;;;;;29.80;7.40;;;;;;;18.82;100.00;101845.69;5073148;28;20437;-85
2021/12/13 12:35:29;;;;;;;30.53;7.80;;;;;;;18.87;100.00;101834.75;5068092;28;20469;-84